Time;durP1;ratioP1;P1;durP2;ratioP2;P2;SDS_P1;SDS_P2;PMS_P1;PMS_P2;Temp;Humidity;BMP_temperature;BMP_pressure;BME280_temperature;BME280_humidity;BME280_pressure;Samples;Min_cycle;Max_cycle;Signal;HPM_P1;HPM_P2
2021/06/21 00:01:48;;;;;;;7.33;6.83;;;20.20;99.90;;;;;;5014808;28;20191;-65
2021/06/21 00:04:14;;;;;;;8.13;7.65;;;20.20;99.90;;;;;;5014796;28;20709;-65
2021/06/21 00:06:39;;;;;;;6.47;6.07;;;20.30;99.90;;;;;;5014971;28;20175;-65
2021/06/21 00:09:06;;;;;;;7.00;6.55;;;20.30;99.90;;;;;;5014673;28;20623;-65
2021/06/21 00:11:31;;;;;;;6.30;5.90;;;20.30;99.90;;;;;;5014542;28;20185;-65
2021/06/21 00:13:57;;;;;;;6.72;6.32;;;20.30;99.90;;;;;;5014635;28;20199;-65
2021/06/21 00:16:25;;;;;;;7.95;7.25;;;20.30;99.90;;;;;;5014687;28;20180;-66
2021/06/21 00:18:50;;;;;;;8.17;7.67;;;20.20;99.90;;;;;;5014334;28;20176;-66
2021/06/21 00:21:16;;;;;;;8.33;7.73;;;19.90;99.90;;;;;;5014427;28;20172;-65
2021/06/21 00:23:41;;;;;;;9.30;8.70;;;19.80;99.90;;;;;;5014644;28;20266;-65
2021/06/21 00:26:07;;;;;;;8.57;7.97;;;19.70;99.90;;;;;;5014606;28;20548;-66
2021/06/21 00:28:33;;;;;;;10.30;9.37;;;19.50;99.90;;;;;;5014352;28;20180;-66
2021/06/21 00:30:59;;;;;;;9.33;8.70;;;19.40;99.90;;;;;;5014021;28;20204;-65
2021/06/21 00:33:25;;;;;;;8.70;8.10;;;19.30;99.90;;;;;;5014343;28;20255;-65
2021/06/21 00:35:50;;;;;;;8.97;8.27;;;19.20;99.90;;;;;;5014446;28;20168;-65
2021/06/21 00:38:16;;;;;;;9.53;8.63;;;19.30;99.90;;;;;;5014270;28;20609;-65
2021/06/21 00:40:42;;;;;;;9.50;8.77;;;19.30;99.90;;;;;;5014013;28;20214;-65
2021/06/21 00:43:08;;;;;;;10.30;9.40;;;19.20;99.90;;;;;;5017555;28;20291;-65
2021/06/21 00:45:34;;;;;;;10.43;9.73;;;19.20;99.90;;;;;;5014496;28;20664;-65
2021/06/21 00:48:00;;;;;;;10.47;9.57;;;19.30;99.90;;;;;;5012810;28;20188;-63
2021/06/21 00:50:28;;;;;;;10.23;9.27;;;19.20;99.90;;;;;;5013983;28;20203;-65
2021/06/21 00:52:57;;;;;;;10.60;9.63;;;19.20;99.90;;;;;;5013633;28;20287;-64
2021/06/21 00:55:23;;;;;;;10.67;9.87;;;19.20;99.90;;;;;;5014150;28;20536;-64
2021/06/21 00:57:49;;;;;;;11.67;10.57;;;19.20;99.90;;;;;;5013697;28;20183;-64
2021/06/21 01:00:18;;;;;;;12.97;11.00;;;19.20;99.90;;;;;;5013716;28;20164;-65
2021/06/21 01:02:44;;;;;;;11.73;10.73;;;19.20;99.90;;;;;;5013599;28;20204;-65
2021/06/21 01:05:18;;;;;;;10.60;9.70;;;19.10;99.90;;;;;;5013874;28;20168;-65
2021/06/21 01:07:44;;;;;;;11.70;10.70;;;19.10;99.90;;;;;;5028442;28;20542;-65
2021/06/21 01:10:11;;;;;;;12.80;11.70;;;19.10;99.90;;;;;;5013362;28;20204;-65
2021/06/21 01:12:46;;;;;;;14.27;12.77;;;19.10;99.90;;;;;;5012132;28;20215;-64
2021/06/21 01:15:19;;;;;;;12.63;11.53;;;19.00;99.90;;;;;;5013587;28;20174;-65
2021/06/21 01:18:09;;;;;;;11.93;11.00;;;19.10;99.90;;;;;;5013537;28;20234;-64
2021/06/21 01:21:04;;;;;;;13.33;12.10;;;19.00;99.90;;;;;;5013263;28;20538;-65
2021/06/21 01:24:00;;;;;;;12.70;11.67;;;19.10;99.90;;;;;;4994010;28;20204;-65
2021/06/21 01:26:44;;;;;;;14.40;11.53;;;19.20;99.90;;;;;;5013447;28;20183;-65
2021/06/21 01:29:37;;;;;;;12.47;11.37;;;19.20;99.90;;;;;;5013060;28;20200;-65
2021/06/21 01:32:10;;;;;;;12.50;11.30;;;19.30;99.90;;;;;;5028387;28;20196;-66
2021/06/21 01:34:41;;;;;;;12.67;11.47;;;19.40;99.90;;;;;;5013096;28;20176;-65
2021/06/21 01:37:07;;;;;;;12.63;11.50;;;19.40;99.90;;;;;;5013209;28;20169;-65
2021/06/21 01:39:35;;;;;;;12.57;11.37;;;19.40;99.90;;;;;;5012917;28;20264;-65
2021/06/21 01:42:21;;;;;;;13.25;12.13;;;19.40;99.90;;;;;;5012943;28;20188;-66
2021/06/21 01:45:06;;;;;;;12.20;11.17;;;19.40;99.90;;;;;;5012958;28;20176;-65
2021/06/21 01:47:33;;;;;;;12.80;11.63;;;19.40;99.90;;;;;;5012892;28;20209;-65
2021/06/21 01:50:00;;;;;;;13.87;12.60;;;19.40;99.90;;;;;;5012834;28;20282;-65
2021/06/21 01:52:32;;;;;;;13.67;12.43;;;19.30;99.90;;;;;;5027298;28;20701;-66
2021/06/21 01:54:59;;;;;;;11.70;10.80;;;19.30;99.90;;;;;;5011983;28;20183;-65
2021/06/21 01:57:28;;;;;;;12.63;11.43;;;19.30;99.90;;;;;;5011804;28;20199;-66
2021/06/21 01:59:55;;;;;;;12.57;11.50;;;19.30;99.90;;;;;;5011403;28;20256;-66
2021/06/21 02:02:23;;;;;;;12.93;11.83;;;19.40;99.90;;;;;;5011721;28;20673;-65
2021/06/21 02:04:55;;;;;;;14.10;11.97;;;19.40;99.90;;;;;;5012273;28;20175;-70
2021/06/21 02:07:22;;;;;;;13.10;11.97;;;19.40;99.90;;;;;;5013534;28;20179;-71
2021/06/21 02:09:51;;;;;;;12.30;11.30;;;19.40;99.90;;;;;;5013131;28;20218;-71
2021/06/21 02:12:19;;;;;;;13.50;12.33;;;19.40;99.90;;;;;;5013834;28;20191;-69
2021/06/21 02:14:49;;;;;;;13.60;12.50;;;19.40;99.90;;;;;;5013850;28;20165;-72
2021/06/21 02:17:16;;;;;;;12.77;11.67;;;19.40;99.90;;;;;;5013521;28;20335;-70
2021/06/21 02:19:44;;;;;;;13.40;12.23;;;19.50;99.90;;;;;;5013222;28;20176;-69
2021/06/21 02:22:10;;;;;;;12.07;11.13;;;19.50;99.90;;;;;;5013047;28;20286;-69
2021/06/21 02:24:37;;;;;;;12.60;11.43;;;19.50;99.90;;;;;;5013072;28;20184;-70
2021/06/21 02:27:03;;;;;;;13.43;12.23;;;19.50;99.90;;;;;;5012972;28;20864;-70
2021/06/21 02:29:30;;;;;;;13.10;12.10;;;19.50;99.90;;;;;;5013056;28;20680;-69
2021/06/21 02:31:57;;;;;;;14.07;12.87;;;19.60;99.90;;;;;;5012555;28;20565;-68
2021/06/21 02:34:23;;;;;;;13.80;12.70;;;19.60;99.90;;;;;;5012782;28;20176;-70
2021/06/21 02:36:49;;;;;;;13.07;12.00;;;19.60;99.90;;;;;;5012511;28;20263;-70
2021/06/21 02:39:15;;;;;;;14.23;12.93;;;19.70;99.90;;;;;;5011949;28;20192;-70
2021/06/21 02:41:41;;;;;;;14.07;12.60;;;19.70;99.90;;;;;;5012182;28;20220;-73
2021/06/21 02:44:07;;;;;;;14.77;13.37;;;19.60;99.90;;;;;;5012272;28;20676;-71
2021/06/21 02:46:34;;;;;;;14.47;13.07;;;19.70;99.90;;;;;;5012333;28;20184;-69
2021/06/21 02:49:00;;;;;;;15.13;13.83;;;19.70;99.90;;;;;;5012108;28;20187;-68
2021/06/21 02:51:54;;;;;;;14.13;12.90;;;19.80;99.90;;;;;;5010044;28;103434;-68
2021/06/21 02:54:26;;;;;;;14.33;13.03;;;19.80;99.90;;;;;;5020924;28;20552;-68
2021/06/21 02:57:03;;;;;;;13.17;12.10;;;19.70;99.90;;;;;;5013234;28;20198;-71
2021/06/21 02:59:35;;;;;;;14.63;13.40;;;19.60;99.90;;;;;;5013097;28;20188;-70
2021/06/21 03:02:02;;;;;;;14.90;13.60;;;19.50;99.90;;;;;;5013000;28;20657;-69
2021/06/21 03:04:30;;;;;;;14.67;13.27;;;19.50;99.90;;;;;;5012645;28;20207;-68
2021/06/21 03:06:57;;;;;;;16.40;15.00;;;19.50;99.90;;;;;;5013075;28;20179;-69
2021/06/21 03:09:26;;;;;;;16.83;14.80;;;19.50;99.90;;;;;;5012701;28;20212;-68
2021/06/21 03:11:53;;;;;;;16.10;14.60;;;19.40;99.90;;;;;;5014891;28;20565;-67
2021/06/21 03:14:26;;;;;;;17.47;14.63;;;19.40;99.90;;;;;;5016914;28;20238;-69
2021/06/21 03:16:53;;;;;;;17.30;15.50;;;19.40;99.90;;;;;;5017177;28;20676;-68
2021/06/21 03:19:20;;;;;;;15.87;14.40;;;19.40;99.90;;;;;;5015201;28;20184;-68
2021/06/21 03:21:46;;;;;;;16.13;14.63;;;19.40;99.90;;;;;;5016775;28;20199;-68
2021/06/21 03:24:14;;;;;;;16.90;15.30;;;19.50;99.90;;;;;;5015599;28;20684;-70
2021/06/21 03:26:41;;;;;;;16.90;15.40;;;19.50;99.90;;;;;;5016466;28;20194;-68
2021/06/21 03:29:18;;;;;;;17.63;15.90;;;19.50;99.90;;;;;;5016476;28;20656;-70
2021/06/21 03:31:49;;;;;;;18.30;16.15;;;19.50;99.90;;;;;;5016250;28;20554;-68
2021/06/21 03:34:17;;;;;;;17.97;16.23;;;19.50;99.90;;;;;;5016787;28;20168;-68
2021/06/21 03:36:43;;;;;;;17.27;15.57;;;19.60;99.90;;;;;;5016430;28;20180;-69
2021/06/21 03:39:09;;;;;;;19.97;18.17;;;19.50;99.90;;;;;;5016434;28;20557;-69
2021/06/21 03:41:35;;;;;;;19.07;17.17;;;19.50;99.90;;;;;;5015769;28;20208;-70
2021/06/21 03:44:01;;;;;;;19.43;17.50;;;19.50;99.90;;;;;;5016444;28;20184;-68
2021/06/21 03:46:28;;;;;;;18.57;16.60;;;19.50;99.90;;;;;;5015988;28;20233;-69
2021/06/21 03:48:53;;;;;;;17.83;16.07;;;19.50;99.90;;;;;;5016278;28;20177;-73
2021/06/21 03:51:19;;;;;;;18.70;16.90;;;19.60;99.90;;;;;;5015355;28;20182;-70
2021/06/21 03:53:45;;;;;;;17.90;16.13;;;19.60;99.90;;;;;;5031829;28;20198;-72
2021/06/21 03:56:11;;;;;;;19.77;17.23;;;19.60;99.90;;;;;;5015688;28;20199;-65
2021/06/21 03:58:37;;;;;;;20.53;16.80;;;19.70;99.90;;;;;;5015135;28;20187;-66
2021/06/21 04:01:03;;;;;;;18.07;16.20;;;19.80;99.90;;;;;;5013151;28;20402;-65
2021/06/21 04:03:29;;;;;;;19.27;17.37;;;19.90;99.90;;;;;;5015022;28;20177;-65
2021/06/21 04:05:54;;;;;;;18.07;16.33;;;19.90;99.90;;;;;;5014919;28;20507;-66
2021/06/21 04:08:20;;;;;;;17.70;16.00;;;20.00;99.90;;;;;;5015034;28;20176;-66
2021/06/21 04:10:47;;;;;;;18.93;17.27;;;20.00;99.90;;;;;;5014590;28;20224;-66
2021/06/21 04:13:15;;;;;;;22.77;20.33;;;19.90;99.90;;;;;;5014527;28;20200;-65
2021/06/21 04:15:41;;;;;;;17.57;15.83;;;19.90;99.90;;;;;;5014598;28;20169;-65
2021/06/21 04:18:09;;;;;;;16.97;15.37;;;20.00;99.90;;;;;;5015015;28;20169;-66
2021/06/21 04:20:36;;;;;;;16.77;15.10;;;20.00;99.90;;;;;;5014205;28;20207;-65
2021/06/21 04:23:03;;;;;;;17.40;15.70;;;20.00;99.90;;;;;;5029395;28;20251;-65
2021/06/21 04:25:29;;;;;;;17.50;15.87;;;20.00;99.90;;;;;;5014412;28;20542;-66
2021/06/21 04:27:55;;;;;;;20.03;17.93;;;20.00;99.90;;;;;;5014616;28;20176;-65
2021/06/21 04:30:23;;;;;;;19.80;17.90;;;20.00;99.90;;;;;;5014251;28;20226;-66
2021/06/21 04:32:50;;;;;;;20.57;18.47;;;20.00;99.90;;;;;;5014214;28;20196;-66
2021/06/21 04:35:18;;;;;;;20.23;18.17;;;20.00;99.90;;;;;;5014364;28;20266;-65
2021/06/21 04:37:44;;;;;;;19.60;17.50;;;20.10;99.90;;;;;;4996876;28;20180;-65
2021/06/21 04:40:13;;;;;;;17.23;15.50;;;20.10;99.90;;;;;;5014213;28;20253;-65
2021/06/21 04:42:39;;;;;;;17.03;15.10;;;20.10;99.90;;;;;;5014018;28;20571;-65
2021/06/21 04:45:06;;;;;;;16.97;15.47;;;20.10;99.90;;;;;;5014388;28;20168;-65
2021/06/21 04:47:32;;;;;;;17.20;15.07;;;20.20;99.90;;;;;;5014185;28;20212;-66
2021/06/21 04:50:02;;;;;;;15.87;13.77;;;20.30;99.90;;;;;;5013907;28;20254;-66
2021/06/21 04:52:32;;;;;;;17.33;13.83;;;20.30;99.90;;;;;;5014243;28;20204;-65
2021/06/21 04:55:01;;;;;;;15.83;14.47;;;20.30;99.90;;;;;;5014385;28;20176;-65
2021/06/21 04:57:32;;;;;;;16.43;14.70;;;20.40;99.90;;;;;;5013777;28;20214;-65
2021/06/21 04:59:58;;;;;;;16.53;15.07;;;20.40;99.90;;;;;;5017652;28;20173;-65
2021/06/21 05:02:24;;;;;;;14.87;13.57;;;20.40;99.90;;;;;;5015513;28;20577;-65
2021/06/21 05:04:49;;;;;;;16.40;14.90;;;20.50;99.90;;;;;;5013962;28;20634;-65
2021/06/21 05:07:15;;;;;;;18.60;16.70;;;20.50;99.90;;;;;;5013519;28;20183;-66
2021/06/21 05:09:42;;;;;;;17.73;16.00;;;20.40;99.90;;;;;;5013860;28;20632;-65
2021/06/21 05:12:09;;;;;;;17.00;15.40;;;20.30;99.90;;;;;;5013469;28;20226;-65
2021/06/21 05:14:35;;;;;;;18.40;16.33;;;20.30;99.90;;;;;;5013622;28;20164;-65
2021/06/21 05:17:00;;;;;;;19.87;17.87;;;20.30;99.90;;;;;;5013639;28;20179;-65
2021/06/21 05:19:26;;;;;;;22.10;19.87;;;20.20;99.90;;;;;;5013422;28;20183;-65
2021/06/21 05:21:52;;;;;;;20.93;18.87;;;20.10;99.90;;;;;;5013035;28;20196;-65
2021/06/21 05:24:17;;;;;;;21.43;18.93;;;20.10;99.90;;;;;;5013566;28;20548;-65
2021/06/21 05:26:43;;;;;;;20.53;17.90;;;20.00;99.90;;;;;;5013388;28;20180;-65
2021/06/21 05:29:09;;;;;;;18.50;16.70;;;20.10;99.90;;;;;;5013240;28;20176;-65
2021/06/21 05:31:36;;;;;;;18.63;16.83;;;20.10;99.90;;;;;;5012739;28;20672;-65
2021/06/21 05:34:01;;;;;;;16.13;14.70;;;20.00;99.90;;;;;;5012677;28;20183;-65
2021/06/21 05:36:27;;;;;;;16.30;14.80;;;20.00;99.90;;;;;;5013262;28;20805;-65
2021/06/21 05:38:53;;;;;;;14.53;13.23;;;20.00;99.90;;;;;;5013020;28;20187;-65
2021/06/21 05:41:18;;;;;;;16.00;14.50;;;20.10;99.90;;;;;;5012825;28;20177;-65
2021/06/21 05:43:44;;;;;;;15.90;14.23;;;20.10;99.90;;;;;;5013275;28;20239;-65
2021/06/21 05:46:10;;;;;;;15.00;13.70;;;20.10;99.90;;;;;;5013262;28;20176;-65
2021/06/21 05:48:35;;;;;;;13.60;12.50;;;20.10;99.90;;;;;;5012709;28;20187;-65
2021/06/21 05:51:01;;;;;;;14.47;13.37;;;20.00;99.90;;;;;;5012653;28;20211;-65
2021/06/21 05:53:29;;;;;;;16.83;15.53;;;19.90;99.90;;;;;;5012789;28;20223;-65
2021/06/21 05:55:56;;;;;;;15.97;14.67;;;19.90;99.90;;;;;;5012979;28;20187;-65
2021/06/21 05:58:22;;;;;;;17.90;16.20;;;19.80;99.90;;;;;;5012748;28;20749;-65
2021/06/21 06:00:48;;;;;;;17.67;16.07;;;19.80;99.90;;;;;;5012599;28;20255;-65
2021/06/21 06:03:13;;;;;;;20.03;18.13;;;19.80;99.90;;;;;;5012363;28;20204;-65
2021/06/21 06:05:39;;;;;;;21.03;19.03;;;19.90;99.90;;;;;;5012792;28;20183;-66
2021/06/21 06:08:04;;;;;;;18.33;16.63;;;20.00;99.90;;;;;;5012686;28;20195;-65
2021/06/21 06:10:31;;;;;;;20.63;18.43;;;19.90;99.90;;;;;;5012365;28;20204;-66
2021/06/21 06:12:57;;;;;;;20.50;18.60;;;20.00;99.90;;;;;;5012493;28;20204;-65
2021/06/21 06:15:23;;;;;;;20.00;18.07;;;20.00;99.90;;;;;;5012367;28;20187;-65
2021/06/21 06:17:50;;;;;;;20.37;18.40;;;19.90;99.90;;;;;;5012587;28;20638;-65
2021/06/21 06:20:16;;;;;;;20.20;18.10;;;20.00;99.90;;;;;;5012068;28;20176;-65
2021/06/21 06:22:42;;;;;;;20.37;18.37;;;20.00;99.90;;;;;;5012488;28;20693;-65
2021/06/21 06:25:08;;;;;;;20.77;18.73;;;20.10;99.90;;;;;;5012602;28;20174;-66
2021/06/21 06:27:35;;;;;;;21.07;19.10;;;20.10;99.90;;;;;;5011961;28;20180;-65
2021/06/21 06:30:00;;;;;;;21.10;18.87;;;20.00;99.90;;;;;;5012279;28;20580;-65
2021/06/21 06:32:26;;;;;;;22.63;20.40;;;20.10;99.90;;;;;;5012016;28;20200;-65
2021/06/21 06:34:52;;;;;;;22.77;20.57;;;20.10;99.90;;;;;;5012384;28;20176;-65
2021/06/21 06:37:17;;;;;;;21.43;19.33;;;20.20;99.90;;;;;;5011946;28;20184;-65
2021/06/21 06:39:43;;;;;;;21.47;19.47;;;20.20;99.90;;;;;;5012070;28;20180;-65
2021/06/21 06:42:09;;;;;;;24.47;22.13;;;20.30;99.90;;;;;;5011952;28;20208;-65
2021/06/21 06:44:37;;;;;;;23.03;20.43;;;20.30;99.90;;;;;;5011025;28;20195;-65
2021/06/21 06:47:03;;;;;;;21.53;19.37;;;20.20;99.90;;;;;;5002824;28;20195;-66
2021/06/21 06:49:29;;;;;;;22.13;19.83;;;19.90;99.90;;;;;;5011688;28;20204;-66
2021/06/21 06:51:56;;;;;;;21.67;19.47;;;19.80;99.90;;;;;;5011373;28;20625;-66
2021/06/21 06:54:25;;;;;;;22.80;20.60;;;19.70;99.90;;;;;;5011959;28;20183;-66
2021/06/21 06:56:59;;;;;;;21.07;19.03;;;19.70;99.90;;;;;;5011799;28;20183;-66
2021/06/21 06:59:33;;;;;;;24.00;21.23;;;19.50;99.90;;;;;;5011765;28;20199;-66
2021/06/21 07:02:00;;;;;;;23.83;21.23;;;19.20;99.90;;;;;;5011385;28;20204;-66
2021/06/21 07:04:29;;;;;;;26.47;22.90;;;19.00;99.90;;;;;;5011836;28;20712;-66
2021/06/21 07:06:56;;;;;;;28.23;23.77;;;18.80;99.90;;;;;;5011649;28;20180;-66
2021/06/21 07:09:23;;;;;;;31.27;25.27;;;18.80;99.90;;;;;;5011618;28;20699;-66
2021/06/21 07:11:51;;;;;;;26.50;23.10;;;18.90;99.90;;;;;;5011358;28;20200;-66
2021/06/21 07:14:18;;;;;;;28.40;24.03;;;18.90;99.90;;;;;;5011817;28;20176;-66
2021/06/21 07:16:44;;;;;;;28.63;23.93;;;18.80;99.90;;;;;;5011645;28;20184;-66
2021/06/21 07:19:09;;;;;;;29.17;24.73;;;19.10;99.90;;;;;;5011774;28;20230;-66
2021/06/21 07:21:35;;;;;;;31.07;23.50;;;19.20;99.90;;;;;;5011089;28;20192;-66
2021/06/21 07:24:00;;;;;;;28.80;24.37;;;19.30;99.90;;;;;;5011818;28;20633;-66
2021/06/21 07:26:26;;;;;;;26.90;22.43;;;19.30;99.90;;;;;;5011375;28;20180;-66
2021/06/21 07:28:52;;;;;;;24.53;21.97;;;19.50;99.90;;;;;;5011725;28;20176;-66
2021/06/21 07:31:18;;;;;;;28.63;22.57;;;19.70;99.90;;;;;;5010966;28;20575;-66
2021/06/21 07:33:44;;;;;;;29.87;23.80;;;19.80;99.90;;;;;;5011619;28;20188;-66
2021/06/21 07:36:10;;;;;;;26.07;23.37;;;20.00;99.90;;;;;;5011637;28;20222;-65
2021/06/21 07:38:35;;;;;;;26.30;22.13;;;19.90;99.90;;;;;;5011219;28;20208;-65
2021/06/21 07:41:01;;;;;;;26.90;23.03;;;19.80;99.90;;;;;;5011805;28;20184;-66
2021/06/21 07:43:27;;;;;;;27.70;22.57;;;19.70;99.90;;;;;;5011180;28;20292;-65
2021/06/21 07:45:53;;;;;;;28.20;22.63;;;20.00;99.90;;;;;;5011586;28;20714;-65
2021/06/21 07:48:18;;;;;;;23.40;20.77;;;20.40;99.90;;;;;;5026406;28;20187;-66
2021/06/21 07:50:44;;;;;;;23.73;18.77;;;20.90;99.90;;;;;;5010988;28;20549;-66
2021/06/21 07:53:10;;;;;;;24.13;19.80;;;21.00;99.90;;;;;;5011111;28;20290;-66
2021/06/21 07:55:36;;;;;;;23.38;20.80;;;21.00;99.90;;;;;;5011283;28;20226;-66
2021/06/21 07:58:03;;;;;;;22.67;20.13;;;20.90;99.90;;;;;;5013406;28;20176;-66
2021/06/21 08:00:29;;;;;;;26.83;20.30;;;20.50;99.90;;;;;;5014733;28;20319;-66
2021/06/21 08:02:55;;;;;;;22.93;19.07;;;20.30;99.90;;;;;;5014824;28;20203;-66
2021/06/21 08:05:22;;;;;;;18.03;16.23;;;20.10;99.90;;;;;;5014801;28;20634;-66
2021/06/21 08:07:48;;;;;;;16.47;14.03;;;20.00;99.90;;;;;;5029857;28;20191;-66
2021/06/21 08:10:15;;;;;;;15.77;14.17;;;19.60;99.90;;;;;;5013744;28;20212;-66
2021/06/21 08:12:42;;;;;;;21.70;18.40;;;19.00;99.90;;;;;;5013798;28;20200;-66
2021/06/21 08:15:12;;;;;;;19.37;17.27;;;18.60;99.90;;;;;;5014643;28;20656;-66
2021/06/21 08:17:38;;;;;;;18.90;16.87;;;18.40;99.90;;;;;;5014718;28;20172;-66
2021/06/21 08:20:06;;;;;;;15.83;13.97;;;18.20;99.90;;;;;;5014300;28;20176;-66
2021/06/21 08:22:32;;;;;;;13.43;11.77;;;18.30;99.90;;;;;;5014499;28;20211;-66
2021/06/21 08:24:57;;;;;;;12.80;11.57;;;18.20;99.90;;;;;;5014794;28;20180;-66
2021/06/21 08:27:23;;;;;;;13.13;11.83;;;18.20;99.90;;;;;;5014181;28;20650;-66
2021/06/21 08:29:49;;;;;;;11.50;10.50;;;18.00;99.90;;;;;;5014315;28;20200;-66
2021/06/21 08:32:14;;;;;;;13.20;11.90;;;18.00;99.90;;;;;;5014275;28;20676;-66
2021/06/21 08:34:41;;;;;;;12.53;11.40;;;17.90;99.90;;;;;;5014373;28;20558;-66
2021/06/21 08:37:07;;;;;;;11.33;10.23;;;18.00;99.90;;;;;;5013013;28;20270;-66
2021/06/21 08:39:33;;;;;;;10.23;9.23;;;18.20;99.90;;;;;;5014213;28;20183;-65
2021/06/21 08:41:59;;;;;;;10.23;9.13;;;18.00;99.90;;;;;;5013861;28;20559;-65
2021/06/21 08:44:26;;;;;;;11.10;10.00;;;17.90;99.90;;;;;;5014221;28;20176;-66
2021/06/21 08:46:52;;;;;;;10.57;9.57;;;17.80;99.90;;;;;;5013240;28;20519;-66
2021/06/21 08:49:19;;;;;;;9.47;8.60;;;17.80;99.90;;;;;;5014227;28;20191;-65
2021/06/21 08:51:46;;;;;;;10.00;9.20;;;17.60;99.90;;;;;;5013154;28;20688;-66
2021/06/21 08:54:12;;;;;;;8.97;8.17;;;17.50;99.90;;;;;;5014722;28;20665;-66
2021/06/21 08:56:37;;;;;;;8.13;7.43;;;17.50;99.90;;;;;;5014067;28;20188;-65
2021/06/21 08:59:07;;;;;;;7.47;6.80;;;17.40;99.90;;;;;;5014245;28;20180;-66
2021/06/21 09:01:36;;;;;;;8.37;7.77;;;17.30;99.90;;;;;;5011975;28;20607;-66
2021/06/21 09:04:03;;;;;;;8.97;8.33;;;17.40;99.90;;;;;;5017775;28;20251;-66
2021/06/21 09:06:36;;;;;;;8.37;7.67;;;17.30;99.90;;;;;;5021610;28;20282;-65
2021/06/21 09:09:02;;;;;;;7.27;6.67;;;17.30;99.90;;;;;;5022895;28;20188;-65
2021/06/21 09:11:46;;;;;;;5.73;5.43;;;17.20;99.90;;;;;;5012756;28;20611;-65
2021/06/21 09:14:29;;;;;;;6.80;6.30;;;17.30;99.90;;;;;;5013863;28;20518;-65
2021/06/21 09:17:09;;;;;;;5.50;5.20;;;17.30;99.90;;;;;;5013211;28;20183;-65
2021/06/21 09:19:52;;;;;;;5.90;5.60;;;17.10;99.90;;;;;;5013316;28;20178;-65
2021/06/21 09:22:28;;;;;;;5.70;5.40;;;17.00;99.90;;;;;;5012966;28;20204;-65
2021/06/21 09:24:55;;;;;;;5.70;5.40;;;17.10;99.90;;;;;;5012273;28;20242;-65
2021/06/21 09:27:22;;;;;;;6.13;5.80;;;17.20;99.90;;;;;;5013201;28;20184;-65
2021/06/21 09:29:49;;;;;;;4.83;4.63;;;17.60;99.90;;;;;;5013005;28;20291;-65
2021/06/21 09:32:16;;;;;;;4.93;4.63;;;18.00;99.90;;;;;;5013039;28;20589;-66
2021/06/21 09:34:43;;;;;;;4.93;4.73;;;18.30;99.90;;;;;;5013335;28;20647;-66
2021/06/21 09:37:17;;;;;;;4.70;4.40;;;18.70;99.90;;;;;;5012527;28;20705;-65
2021/06/21 09:39:45;;;;;;;4.70;4.50;;;18.60;99.90;;;;;;5013094;28;20171;-66
2021/06/21 09:42:23;;;;;;;4.40;4.20;;;18.40;99.90;;;;;;5012761;28;20211;-66
2021/06/21 09:44:52;;;;;;;4.20;4.00;;;17.90;99.90;;;;;;5013119;28;20761;-66
2021/06/21 09:47:34;;;;;;;4.50;4.30;;;17.60;99.90;;;;;;5011765;28;20188;-64
2021/06/21 09:50:11;;;;;;;4.93;4.63;;;17.60;99.90;;;;;;5012663;28;20203;-65
2021/06/21 09:52:50;;;;;;;4.80;4.60;;;17.70;99.90;;;;;;5002735;28;20685;-66
2021/06/21 09:55:29;;;;;;;4.40;4.20;;;18.10;99.90;;;;;;5012470;28;20258;-65
2021/06/21 09:58:01;;;;;;;4.80;4.60;;;18.60;99.90;;;;;;5013074;28;20206;-65
2021/06/21 10:00:27;;;;;;;4.47;4.27;;;18.80;99.90;;;;;;5012706;28;20176;-67
2021/06/21 10:03:06;;;;;;;5.67;5.43;;;19.10;99.90;;;;;;5012623;28;20323;-65
2021/06/21 10:05:32;;;;;;;5.67;5.37;;;19.40;99.90;;;;;;5012568;28;20171;-66
2021/06/21 10:07:58;;;;;;;4.80;4.60;;;19.30;99.90;;;;;;5012491;28;20716;-65
2021/06/21 10:10:24;;;;;;;4.50;4.30;;;18.90;99.90;;;;;;5011485;28;20291;-66
2021/06/21 10:12:50;;;;;;;4.50;4.30;;;18.80;99.90;;;;;;5012126;28;20224;-66
2021/06/21 10:15:16;;;;;;;4.80;4.60;;;18.90;99.90;;;;;;5012680;28;20652;-66
2021/06/21 10:17:43;;;;;;;5.73;5.53;;;19.20;99.90;;;;;;5012371;28;20180;-65
2021/06/21 10:20:10;;;;;;;6.27;5.97;;;19.60;99.90;;;;;;5012007;28;20212;-66
2021/06/21 10:22:36;;;;;;;5.10;4.90;;;19.40;99.90;;;;;;5012275;28;20571;-65
2021/06/21 10:25:05;;;;;;;4.00;3.90;;;18.80;99.90;;;;;;5011893;28;20310;-65
2021/06/21 10:27:31;;;;;;;4.90;4.50;;;18.40;99.90;;;;;;5011882;28;20275;-65
2021/06/21 10:29:58;;;;;;;4.40;4.20;;;18.10;99.90;;;;;;5011837;28;20365;-65
2021/06/21 10:32:26;;;;;;;4.60;4.40;;;17.80;99.90;;;;;;5011902;28;20200;-65
2021/06/21 10:34:52;;;;;;;5.23;5.03;;;18.00;99.90;;;;;;5010968;28;20182;-65
2021/06/21 10:37:21;;;;;;;4.87;4.67;;;17.90;99.90;;;;;;5011752;28;20176;-65
2021/06/21 10:39:49;;;;;;;4.70;4.50;;;18.10;99.90;;;;;;5011659;28;20215;-65
2021/06/21 10:42:21;;;;;;;6.17;5.50;;;18.30;99.90;;;;;;4992411;28;20200;-65
2021/06/21 10:44:50;;;;;;;5.83;5.63;;;18.20;99.90;;;;;;4992542;28;20631;-65
2021/06/21 10:47:41;;;;;;;5.47;5.27;;;18.10;99.90;;;;;;5010349;28;20180;-65
2021/06/21 10:50:21;;;;;;;4.80;4.60;;;18.10;99.90;;;;;;5011493;28;20253;-65
2021/06/21 10:52:50;;;;;;;5.30;5.10;;;18.10;99.90;;;;;;5019698;22;20527;-65
2021/06/21 10:55:22;;;;;;;4.50;4.30;;;18.00;99.90;;;;;;5020064;28;20175;-65
2021/06/21 10:57:53;;;;;;;4.70;4.50;;;18.00;99.90;;;;;;5031339;28;20168;-65
2021/06/21 11:00:22;;;;;;;5.33;5.13;;;18.00;99.90;;;;;;5014085;28;20188;-66
2021/06/21 11:02:48;;;;;;;4.73;4.53;;;17.90;99.90;;;;;;5021711;28;20256;-66
2021/06/21 11:05:34;;;;;;;5.20;5.00;;;17.80;99.90;;;;;;5031496;28;20179;-64
2021/06/21 11:08:22;;;;;;;5.07;4.87;;;17.80;99.90;;;;;;5031397;28;20183;-64
2021/06/21 11:10:53;;;;;;;5.13;4.93;;;17.70;99.90;;;;;;5030835;28;20564;-64
2021/06/21 11:13:34;;;;;;;4.80;4.50;;;18.10;99.90;;;;;;5031568;28;20676;-65
2021/06/21 11:16:16;;;;;;;4.87;4.63;;;18.50;99.90;;;;;;5031097;28;20179;-64
2021/06/21 11:18:43;;;;;;;4.70;4.50;;;18.90;99.90;;;;;;5031300;28;20229;-65
2021/06/21 11:21:16;;;;;;;4.70;4.50;;;19.20;99.90;;;;;;5031091;28;20722;-64
2021/06/21 11:23:44;;;;;;;6.53;6.23;;;19.40;99.90;;;;;;5031452;28;20198;-65
2021/06/21 11:26:10;;;;;;;5.00;4.80;;;19.30;99.90;;;;;;5031111;28;20644;-65
2021/06/21 11:28:39;;;;;;;7.60;7.30;;;18.90;99.90;;;;;;5016618;28;20183;-65
2021/06/21 11:31:25;;;;;;;4.80;4.60;;;18.70;99.90;;;;;;5011340;28;20196;-64
2021/06/21 11:34:00;;;;;;;4.77;4.57;;;18.50;99.90;;;;;;5015118;28;20609;-65
2021/06/21 11:36:41;;;;;;;5.10;4.90;;;18.40;99.90;;;;;;5033730;28;20529;-65
2021/06/21 11:39:30;;;;;;;4.87;4.67;;;18.50;99.90;;;;;;5035339;28;20202;-65
2021/06/21 11:42:01;;;;;;;4.33;4.13;;;18.50;99.90;;;;;;5034616;28;20275;-65
2021/06/21 11:44:39;;;;;;;4.40;4.20;;;18.70;99.90;;;;;;5035058;28;20178;-65
2021/06/21 11:47:14;;;;;;;6.63;6.33;;;18.90;99.90;;;;;;5034959;28;20191;-65
2021/06/21 11:49:45;;;;;;;5.07;4.87;;;19.00;99.90;;;;;;5034550;28;20206;-65
2021/06/21 11:52:22;;;;;;;5.67;5.47;;;19.20;99.90;;;;;;5034358;28;20199;-65
2021/06/21 11:54:50;;;;;;;5.10;4.90;;;19.30;99.90;;;;;;5034171;28;20183;-65
2021/06/21 11:57:17;;;;;;;5.67;5.37;;;19.10;99.90;;;;;;5034924;28;20172;-65
2021/06/21 11:59:47;;;;;;;5.23;5.03;;;19.10;99.90;;;;;;5034127;28;20180;-65
2021/06/21 12:02:18;;;;;;;4.90;4.70;;;18.90;99.90;;;;;;5034515;28;20199;-65
2021/06/21 12:04:45;;;;;;;4.53;4.33;;;18.80;99.90;;;;;;5034691;28;20191;-65
2021/06/21 12:07:31;;;;;;;4.40;4.20;;;18.80;99.90;;;;;;5033852;28;20183;-65
2021/06/21 12:09:58;;;;;;;4.93;4.73;;;18.80;99.90;;;;;;5034125;28;20281;-65
2021/06/21 12:12:26;;;;;;;4.33;4.13;;;19.00;99.90;;;;;;5034165;28;20214;-65
2021/06/21 12:14:52;;;;;;;4.80;4.60;;;18.90;99.90;;;;;;5032621;28;20182;-65
2021/06/21 12:17:23;;;;;;;4.33;4.13;;;18.90;99.90;;;;;;5015695;28;20183;-65
2021/06/21 12:20:14;;;;;;;4.50;4.30;;;18.70;99.90;;;;;;5014069;28;20176;-65
2021/06/21 12:22:41;;;;;;;4.33;4.13;;;18.70;99.90;;;;;;5014666;28;20207;-65
2021/06/21 12:25:26;;;;;;;4.40;4.20;;;18.80;99.90;;;;;;5027671;28;20177;-65
2021/06/21 12:27:52;;;;;;;5.13;4.83;;;18.80;99.90;;;;;;5015805;28;20191;-64
2021/06/21 12:30:35;;;;;;;5.40;5.13;;;18.80;99.90;;;;;;5015699;28;20312;-65
2021/06/21 12:33:19;;;;;;;5.17;4.97;;;19.00;99.90;;;;;;5034191;28;20184;-64
2021/06/21 12:36:00;;;;;;;7.30;7.00;;;18.90;99.90;;;;;;4994647;28;20254;-65
2021/06/21 12:38:26;;;;;;;6.00;5.70;;;19.00;99.90;;;;;;4980989;28;20634;-65
2021/06/21 12:40:52;;;;;;;5.27;5.00;;;18.70;99.90;;;;;;5033624;28;20163;-65
2021/06/21 12:43:18;;;;;;;4.83;4.63;;;18.50;99.90;;;;;;5033594;28;20645;-65